createdAt,value
2018-08-09T00:01:44.436Z,19.20
2018-08-09T00:04:11.916Z,19.20
2018-08-09T00:06:39.391Z,19.10
2018-08-09T00:09:07.333Z,19.10
2018-08-09T00:11:34.678Z,19.00
2018-08-09T00:14:02.176Z,19.00
2018-08-09T00:16:29.481Z,18.90
2018-08-09T00:18:56.879Z,18.80
2018-08-09T00:21:24.199Z,18.70
2018-08-09T00:23:51.599Z,18.30
2018-08-09T00:26:18.903Z,18.10
2018-08-09T00:28:46.397Z,18.00
2018-08-09T00:31:13.729Z,18.00
2018-08-09T00:33:41.110Z,18.00
2018-08-09T00:36:08.481Z,18.00
2018-08-09T00:38:35.784Z,17.90
2018-08-09T00:41:03.281Z,17.80
2018-08-09T00:43:30.613Z,17.70
2018-08-09T00:45:57.988Z,17.50
2018-08-09T00:48:25.319Z,17.30
2018-08-09T00:50:52.738Z,17.20
2018-08-09T00:53:20.064Z,17.20
2018-08-09T00:55:47.488Z,17.20
2018-08-09T00:58:14.895Z,17.30
2018-08-09T01:00:42.420Z,17.30
2018-08-09T01:03:09.891Z,17.30
2018-08-09T01:05:37.226Z,17.20
2018-08-09T01:08:04.707Z,17.30
2018-08-09T01:10:32.044Z,17.30
2018-08-09T01:12:59.423Z,17.30
2018-08-09T01:15:26.755Z,17.20
2018-08-09T01:17:54.120Z,17.10
2018-08-09T01:20:21.596Z,17.10
2018-08-09T01:22:48.943Z,17.00
2018-08-09T01:25:16.307Z,16.90
2018-08-09T01:27:43.642Z,16.80
2018-08-09T01:30:11.027Z,16.80
2018-08-09T01:32:38.355Z,17.00
2018-08-09T01:35:05.898Z,17.00
2018-08-09T01:37:33.331Z,17.00
2018-08-09T01:40:00.743Z,16.90
2018-08-09T01:42:33.549Z,16.80
2018-08-09T01:45:00.871Z,16.60
2018-08-09T01:47:28.249Z,16.30
2018-08-09T01:49:55.585Z,16.10
2018-08-09T01:52:22.875Z,16.00
2018-08-09T01:54:50.218Z,16.00
2018-08-09T01:57:17.585Z,16.10
2018-08-09T01:59:44.942Z,16.20
2018-08-09T02:02:12.332Z,16.40
2018-08-09T02:04:39.739Z,16.60
2018-08-09T02:07:07.217Z,16.70
2018-08-09T02:09:34.561Z,16.70
2018-08-09T02:12:03.155Z,16.70
2018-08-09T02:14:31.526Z,16.80
2018-08-09T02:16:59.063Z,16.90
2018-08-09T02:19:26.451Z,17.00
2018-08-09T02:21:53.870Z,16.80
2018-08-09T02:24:21.356Z,16.70
2018-08-09T02:26:48.742Z,16.60
2018-08-09T02:29:16.058Z,16.30
2018-08-09T02:31:43.452Z,15.80
2018-08-09T02:34:10.774Z,15.40
2018-08-09T02:36:38.252Z,15.30
2018-08-09T02:39:06.301Z,15.40
2018-08-09T02:41:33.802Z,15.50
2018-08-09T02:44:01.121Z,15.60
2018-08-09T02:46:28.597Z,15.70
2018-08-09T02:48:55.943Z,15.80
2018-08-09T02:51:29.170Z,15.80
2018-08-09T02:53:57.237Z,15.80
2018-08-09T02:57:10.881Z,15.90
2018-08-09T02:59:38.920Z,16.00
2018-08-09T03:02:07.018Z,16.10
2018-08-09T03:04:35.157Z,16.20
2018-08-09T03:07:03.715Z,16.30
2018-08-09T03:09:31.840Z,16.20
2018-08-09T03:11:59.941Z,16.10
2018-08-09T03:14:28.068Z,16.10
2018-08-09T03:16:56.291Z,16.10
2018-08-09T03:19:24.328Z,16.00
2018-08-09T03:21:52.517Z,16.00
2018-08-09T03:24:20.785Z,16.00
2018-08-09T03:26:48.884Z,16.10
2018-08-09T03:29:17.116Z,16.10
2018-08-09T03:31:45.428Z,16.00
2018-08-09T03:34:13.496Z,15.80
2018-08-09T03:36:41.565Z,15.60
2018-08-09T03:39:11.108Z,15.40
2018-08-09T03:41:39.452Z,15.30
2018-08-09T03:44:07.737Z,15.30
2018-08-09T03:46:36.038Z,15.30
2018-08-09T03:49:04.368Z,15.10
2018-08-09T03:51:32.676Z,15.00
2018-08-09T03:54:00.949Z,14.90
2018-08-09T03:56:29.334Z,15.00
2018-08-09T03:58:57.484Z,15.10
2018-08-09T04:01:25.653Z,15.10
2018-08-09T04:03:53.935Z,15.10
2018-08-09T04:06:22.028Z,15.40
2018-08-09T04:08:50.093Z,15.70
2018-08-09T04:11:18.491Z,16.00
2018-08-09T04:13:46.786Z,16.20
2018-08-09T04:16:15.240Z,16.40
2018-08-09T04:18:43.358Z,16.50
2018-08-09T04:21:11.491Z,16.60
2018-08-09T04:23:39.590Z,16.70
2018-08-09T04:26:07.727Z,17.00
2018-08-09T04:28:36.027Z,17.50
2018-08-09T04:31:04.185Z,17.90
2018-08-09T04:33:32.132Z,18.40
2018-08-09T04:36:00.060Z,18.80
2018-08-09T04:38:28.045Z,19.20
2018-08-09T04:40:55.971Z,19.40
2018-08-09T04:43:24.264Z,19.70
2018-08-09T04:45:52.316Z,19.90
2018-08-09T04:48:20.396Z,20.30
2018-08-09T04:50:48.688Z,20.50
2018-08-09T04:53:16.843Z,20.80
2018-08-09T04:55:44.936Z,20.90
2018-08-09T04:58:13.223Z,21.10
2018-08-09T05:00:41.299Z,21.00
2018-08-09T05:03:09.317Z,20.70
2018-08-09T05:05:37.538Z,20.30
2018-08-09T05:08:05.592Z,20.80
2018-08-09T05:10:33.543Z,21.50
2018-08-09T05:13:01.501Z,21.90
2018-08-09T05:15:29.473Z,22.30
2018-08-09T05:17:57.487Z,22.70
2018-08-09T05:20:25.459Z,23.10
2018-08-09T05:22:53.458Z,23.10
2018-08-09T05:25:21.380Z,23.20
2018-08-09T05:27:49.338Z,23.00
2018-08-09T05:30:17.369Z,23.10
2018-08-09T05:32:45.365Z,23.50
2018-08-09T05:35:13.329Z,23.30
2018-08-09T05:37:41.345Z,23.80
2018-08-09T05:40:09.285Z,23.80
2018-08-09T05:42:37.256Z,24.00
2018-08-09T05:45:05.647Z,24.30
2018-08-09T05:47:33.600Z,24.90
2018-08-09T05:50:01.556Z,24.90
2018-08-09T05:52:29.516Z,24.80
2018-08-09T05:54:57.405Z,24.30
2018-08-09T05:57:25.397Z,23.10
2018-08-09T05:59:53.332Z,22.40
2018-08-09T06:02:21.301Z,22.10
2018-08-09T06:04:49.248Z,21.80
2018-08-09T06:07:17.206Z,21.80
2018-08-09T06:09:45.159Z,21.80
2018-08-09T06:12:13.087Z,22.00
2018-08-09T06:14:41.069Z,21.90
2018-08-09T06:17:09.026Z,21.90
2018-08-09T06:19:36.977Z,22.10
2018-08-09T06:22:05.048Z,22.20
2018-08-09T06:24:32.997Z,22.20
2018-08-09T06:27:01.040Z,22.30
2018-08-09T06:29:29.006Z,22.40
2018-08-09T06:31:57.094Z,22.40
2018-08-09T06:34:25.060Z,22.50
2018-08-09T06:36:53.008Z,22.80
2018-08-09T06:39:20.922Z,22.80
2018-08-09T06:41:48.867Z,22.80
2018-08-09T06:44:16.825Z,22.90
2018-08-09T06:46:44.879Z,23.10
2018-08-09T06:49:12.957Z,23.30
2018-08-09T06:51:40.885Z,23.50
2018-08-09T06:54:08.829Z,23.60
2018-08-09T06:56:36.748Z,23.40
2018-08-09T06:59:04.800Z,23.50
2018-08-09T07:01:32.770Z,23.70
2018-08-09T07:04:00.736Z,24.00
2018-08-09T07:06:28.718Z,24.50
2018-08-09T07:08:56.676Z,25.20
2018-08-09T07:11:24.666Z,25.00
2018-08-09T07:13:52.687Z,25.30
2018-08-09T07:16:20.645Z,25.30
2018-08-09T07:18:48.597Z,25.20
2018-08-09T07:21:16.575Z,25.30
2018-08-09T07:23:44.544Z,25.30
2018-08-09T07:26:12.564Z,25.20
2018-08-09T07:28:40.529Z,25.10
2018-08-09T07:31:08.496Z,25.30
2018-08-09T07:33:36.463Z,24.90
2018-08-09T07:36:04.461Z,25.00
2018-08-09T07:38:32.397Z,25.10
2018-08-09T07:41:00.359Z,25.10
2018-08-09T07:43:28.304Z,25.30
2018-08-09T07:45:56.263Z,25.40
2018-08-09T07:48:24.294Z,25.70
2018-08-09T07:50:52.312Z,25.80
2018-08-09T07:53:20.509Z,25.90
2018-08-09T07:55:48.583Z,25.90
2018-08-09T07:58:16.569Z,26.10
2018-08-09T08:00:44.533Z,26.20
2018-08-09T08:03:12.552Z,26.30
2018-08-09T08:05:40.548Z,26.40
2018-08-09T08:08:08.492Z,26.60
2018-08-09T08:10:36.492Z,26.60
2018-08-09T08:13:04.465Z,26.60
2018-08-09T08:15:32.509Z,26.70
2018-08-09T08:18:00.514Z,27.00
2018-08-09T08:20:28.496Z,27.20
2018-08-09T08:22:56.542Z,27.20
2018-08-09T08:25:24.596Z,27.30
2018-08-09T08:27:52.557Z,27.40
2018-08-09T08:30:20.553Z,27.20
2018-08-09T08:32:48.569Z,27.20
2018-08-09T08:35:16.558Z,27.20
2018-08-09T08:37:44.529Z,27.40
2018-08-09T08:40:12.486Z,27.50
2018-08-09T08:42:40.478Z,27.60
2018-08-09T08:45:12.524Z,27.60
2018-08-09T08:47:41.023Z,27.70
2018-08-09T08:50:09.415Z,27.80
2018-08-09T08:52:37.498Z,27.90
2018-08-09T08:55:07.385Z,27.90
2018-08-09T08:57:35.494Z,27.80
2018-08-09T09:00:04.627Z,27.90
2018-08-09T09:02:32.850Z,28.20
2018-08-09T09:05:01.046Z,28.30
2018-08-09T09:07:29.224Z,28.40
2018-08-09T09:09:57.485Z,28.30
2018-08-09T09:12:26.496Z,28.30
2018-08-09T09:14:54.651Z,28.20
2018-08-09T09:17:22.855Z,28.40
2018-08-09T09:19:51.151Z,28.60
2018-08-09T09:22:19.406Z,28.60
2018-08-09T09:24:48.372Z,28.70
2018-08-09T09:27:16.593Z,29.00
2018-08-09T09:29:45.056Z,28.80
2018-08-09T09:32:13.465Z,28.70
2018-08-09T09:34:41.801Z,28.70
2018-08-09T09:37:10.203Z,28.90
2018-08-09T09:39:38.376Z,29.30
2018-08-09T09:42:06.751Z,29.60
2018-08-09T09:44:34.886Z,29.50
2018-08-09T09:47:03.016Z,29.40
2018-08-09T09:49:31.006Z,29.50
2018-08-09T09:51:58.980Z,29.70
2018-08-09T09:54:27.372Z,30.00
2018-08-09T09:56:55.372Z,30.00
2018-08-09T09:59:23.482Z,29.80
2018-08-09T10:01:51.683Z,29.70
2018-08-09T10:04:20.134Z,29.70
2018-08-09T10:06:48.304Z,29.80
2018-08-09T10:09:16.445Z,30.00
2018-08-09T10:11:44.652Z,30.10
2018-08-09T10:14:12.614Z,30.10
2018-08-09T10:16:40.568Z,30.10
2018-08-09T10:19:08.573Z,30.00
2018-08-09T10:21:36.553Z,29.90
2018-08-09T10:24:04.674Z,30.20
2018-08-09T10:26:32.660Z,30.40
2018-08-09T10:29:00.831Z,30.20
2018-08-09T10:31:29.557Z,30.40
2018-08-09T10:33:58.038Z,30.40
2018-08-09T10:39:13.937Z,30.20
2018-08-09T10:41:42.112Z,30.30
2018-08-09T10:44:10.077Z,30.30
2018-08-09T10:46:38.164Z,30.30
2018-08-09T10:49:06.612Z,30.50
2018-08-09T10:51:34.827Z,30.70
2018-08-09T10:54:02.874Z,30.80
2018-08-09T10:56:31.192Z,30.90
2018-08-09T10:58:59.220Z,31.20
2018-08-09T11:01:27.335Z,31.10
2018-08-09T11:03:55.525Z,31.30
2018-08-09T11:06:23.585Z,31.00
2018-08-09T11:08:51.590Z,31.10
2018-08-09T11:11:19.593Z,31.00
2018-08-09T11:13:47.794Z,30.60
2018-08-09T11:16:15.870Z,30.30
2018-08-09T11:18:44.512Z,30.50
2018-08-09T11:21:12.912Z,30.80
2018-08-09T11:23:41.141Z,31.10
2018-08-09T11:26:09.281Z,31.20
2018-08-09T11:28:37.536Z,31.20
2018-08-09T11:31:05.634Z,31.20
2018-08-09T11:33:33.986Z,31.30
2018-08-09T11:36:02.085Z,31.40
2018-08-09T11:38:30.350Z,31.60
2018-08-09T11:40:58.538Z,31.60
2018-08-09T11:43:26.609Z,31.70
2018-08-09T11:45:54.901Z,31.60
2018-08-09T11:48:22.959Z,31.80
2018-08-09T11:50:51.011Z,31.70
2018-08-09T11:53:19.328Z,31.70
2018-08-09T11:55:47.364Z,31.80
2018-08-09T11:58:15.569Z,31.80
2018-08-09T12:00:43.725Z,31.70
2018-08-09T12:03:11.844Z,31.80
2018-08-09T12:05:39.862Z,31.90
2018-08-09T12:08:07.963Z,31.90
2018-08-09T12:10:36.144Z,32.00
2018-08-09T12:13:04.181Z,31.90
2018-08-09T12:15:32.402Z,32.00
2018-08-09T12:18:00.540Z,32.10
2018-08-09T12:20:30.453Z,32.10
2018-08-09T12:23:13.659Z,32.10
2018-08-09T12:25:57.032Z,32.10
2018-08-09T12:28:35.173Z,32.20
2018-08-09T12:31:04.272Z,32.20
2018-08-09T12:33:45.817Z,32.30
2018-08-09T12:36:32.812Z,32.30
2018-08-09T12:39:00.991Z,32.40
2018-08-09T12:41:28.993Z,32.50
2018-08-09T12:43:57.051Z,32.60
2018-08-09T12:46:25.046Z,32.90
2018-08-09T12:49:05.186Z,32.80
2018-08-09T12:51:41.418Z,33.00
2018-08-09T12:54:08.906Z,33.10
2018-08-09T12:56:36.148Z,33.10
2018-08-09T12:59:03.565Z,33.00
2018-08-09T13:01:31.538Z,33.00
2018-08-09T13:03:59.581Z,32.80
2018-08-09T13:06:27.723Z,32.90
2018-08-09T13:08:55.936Z,33.10
2018-08-09T13:11:24.194Z,33.10
2018-08-09T13:13:52.469Z,33.10
2018-08-09T13:16:20.524Z,33.20
2018-08-09T13:18:48.729Z,33.10
2018-08-09T13:21:17.417Z,33.10
2018-08-09T13:23:45.405Z,33.30
2018-08-09T13:26:13.745Z,33.40
2018-08-09T13:28:42.152Z,33.40
2018-08-09T13:31:10.445Z,33.50
2018-08-09T13:33:38.775Z,33.50
2018-08-09T13:36:07.333Z,33.40
2018-08-09T13:38:35.470Z,33.30
2018-08-09T13:41:03.865Z,33.50
2018-08-09T13:43:31.908Z,33.30
2018-08-09T13:46:00.097Z,33.20
2018-08-09T13:48:28.268Z,33.30
2018-08-09T13:50:56.454Z,33.30
2018-08-09T13:53:24.729Z,33.30
2018-08-09T13:55:52.906Z,33.30
2018-08-09T13:58:21.025Z,33.40
2018-08-09T14:00:49.247Z,33.10
2018-08-09T14:03:17.370Z,33.20
2018-08-09T14:05:45.466Z,33.30
2018-08-09T14:08:13.788Z,33.30
2018-08-09T14:10:41.976Z,33.20
2018-08-09T14:13:10.416Z,33.30
2018-08-09T14:15:38.712Z,33.30
2018-08-09T14:18:06.897Z,33.40
2018-08-09T14:20:35.168Z,33.60
2018-08-09T14:23:03.560Z,33.90
2018-08-09T14:25:31.762Z,33.70
2018-08-09T14:27:59.888Z,33.70
2018-08-09T14:30:28.098Z,34.00
2018-08-09T14:32:56.377Z,34.20
2018-08-09T14:35:24.712Z,34.10
2018-08-09T14:37:53.018Z,34.30
2018-08-09T14:40:21.064Z,34.30
2018-08-09T14:42:49.464Z,34.20
2018-08-09T14:45:17.756Z,34.00
2018-08-09T14:47:46.232Z,33.70
2018-08-09T14:50:14.298Z,33.80
2018-08-09T14:52:42.680Z,33.80
2018-08-09T14:55:11.773Z,33.70
2018-08-09T14:57:40.197Z,33.40
2018-08-09T15:00:12.714Z,33.30
2018-08-09T15:02:41.075Z,33.20
2018-08-09T15:05:09.428Z,33.20
2018-08-09T15:07:37.571Z,33.30
2018-08-09T15:10:05.971Z,33.40
2018-08-09T15:12:34.132Z,33.50
2018-08-09T15:15:02.316Z,33.80
2018-08-09T15:17:30.553Z,34.10
2018-08-09T15:19:58.789Z,34.30
2018-08-09T15:22:26.851Z,34.30
2018-08-09T15:24:55.238Z,34.40
2018-08-09T15:27:23.723Z,34.60
2018-08-09T15:29:51.972Z,34.90
2018-08-09T15:32:20.166Z,34.80
2018-08-09T15:34:48.324Z,34.50
2018-08-09T15:37:16.610Z,34.10
2018-08-09T15:39:44.733Z,34.00
2018-08-09T15:42:13.173Z,33.90
2018-08-09T15:44:41.261Z,34.00
2018-08-09T15:47:09.401Z,34.20
2018-08-09T15:49:37.794Z,34.40
2018-08-09T15:52:06.053Z,34.60
2018-08-09T15:54:34.344Z,34.80
2018-08-09T15:57:02.405Z,34.80
2018-08-09T15:59:30.604Z,34.90
2018-08-09T16:01:58.881Z,35.00
2018-08-09T16:04:27.142Z,35.20
2018-08-09T16:07:23.066Z,35.30
2018-08-09T16:10:07.431Z,35.40
2018-08-09T16:12:35.493Z,34.90
2018-08-09T16:15:04.586Z,34.60
2018-08-09T16:17:32.581Z,34.40
2018-08-09T16:20:00.752Z,33.80
2018-08-09T16:22:28.905Z,33.20
2018-08-09T16:24:57.233Z,32.60
2018-08-09T16:27:25.170Z,32.40
2018-08-09T16:29:53.157Z,32.50
2018-08-09T16:32:21.224Z,32.80
2018-08-09T16:34:49.491Z,33.10
2018-08-09T16:37:17.671Z,33.30
2018-08-09T16:39:45.741Z,33.50
2018-08-09T16:42:14.049Z,33.50
2018-08-09T16:44:42.181Z,33.50
2018-08-09T16:47:10.508Z,33.60
2018-08-09T16:49:38.631Z,33.70
2018-08-09T16:52:06.948Z,33.60
2018-08-09T16:54:35.190Z,33.40
2018-08-09T16:57:03.293Z,33.40
2018-08-09T16:59:31.546Z,33.50
2018-08-09T17:01:59.840Z,33.30
2018-08-09T17:04:28.119Z,33.00
2018-08-09T17:06:56.395Z,32.60
2018-08-09T17:09:24.514Z,31.90
2018-08-09T17:11:52.626Z,31.20
2018-08-09T17:14:20.135Z,30.70
2018-08-09T17:16:47.545Z,30.00
2018-08-09T17:19:15.020Z,29.20
2018-08-09T17:21:42.576Z,28.70
2018-08-09T17:24:10.760Z,28.10
2018-08-09T17:26:38.607Z,27.70
2018-08-09T17:29:06.724Z,27.50
2018-08-09T17:31:34.145Z,27.50
2018-08-09T17:34:01.607Z,26.70
2018-08-09T17:36:28.952Z,26.20
2018-08-09T17:38:56.432Z,25.90
2018-08-09T17:41:23.779Z,25.90
2018-08-09T17:43:51.242Z,25.60
2018-08-09T17:46:18.614Z,25.50
2018-08-09T17:48:46.076Z,25.50
2018-08-09T17:51:13.411Z,25.50
2018-08-09T17:53:40.898Z,25.50
2018-08-09T17:56:08.246Z,25.50
2018-08-09T17:58:35.689Z,25.40
2018-08-09T18:01:03.081Z,25.40
2018-08-09T18:03:30.520Z,25.30
2018-08-09T18:05:57.882Z,25.40
2018-08-09T18:08:25.206Z,25.40
2018-08-09T18:10:52.798Z,25.30
2018-08-09T18:13:20.134Z,25.20
2018-08-09T18:15:50.274Z,25.20
2018-08-09T18:18:17.612Z,25.00
2018-08-09T18:20:45.063Z,24.90
2018-08-09T18:23:12.447Z,24.80
2018-08-09T18:25:39.865Z,24.70
2018-08-09T18:28:07.755Z,24.70
2018-08-09T18:30:35.194Z,24.70
2018-08-09T18:33:02.680Z,24.70
2018-08-09T18:35:30.118Z,24.70
2018-08-09T18:37:57.694Z,24.70
2018-08-09T18:40:27.570Z,24.60
2018-08-09T18:42:55.079Z,24.60
2018-08-09T18:45:23.373Z,24.40
2018-08-09T18:47:50.836Z,24.10
2018-08-09T18:50:19.644Z,23.30
2018-08-09T18:52:47.082Z,22.40
2018-08-09T18:55:14.903Z,21.80
2018-08-09T18:57:42.410Z,21.50
2018-08-09T19:00:26.853Z,21.30
2018-08-09T19:02:54.630Z,21.30
2018-08-09T19:05:22.294Z,21.40
2018-08-09T19:07:49.718Z,21.40
2018-08-09T19:10:18.788Z,21.40
2018-08-09T19:12:46.176Z,21.30
2018-08-09T19:15:13.776Z,21.30
2018-08-09T19:17:41.517Z,21.20
2018-08-09T19:20:11.744Z,21.10
2018-08-09T19:22:39.171Z,21.00
2018-08-09T19:25:07.179Z,20.90
2018-08-09T19:27:34.794Z,20.70
2018-08-09T19:30:02.270Z,20.60
2018-08-09T19:32:29.770Z,20.60
2018-08-09T19:34:57.155Z,20.60
2018-08-09T19:37:24.419Z,20.40
2018-08-09T19:39:51.635Z,20.30
2018-08-09T19:42:18.981Z,20.20
2018-08-09T19:44:46.380Z,20.20
2018-08-09T19:47:13.807Z,20.10
2018-08-09T19:49:41.242Z,20.20
2018-08-09T19:52:08.719Z,20.10
2018-08-09T19:54:36.031Z,20.00
2018-08-09T19:57:03.531Z,19.90
2018-08-09T19:59:30.851Z,19.60
2018-08-09T20:01:58.142Z,19.30
2018-08-09T20:04:25.416Z,19.10
2018-08-09T20:06:52.799Z,19.10
2018-08-09T20:09:20.036Z,19.00
2018-08-09T20:11:47.284Z,18.90
2018-08-09T20:14:14.559Z,18.90
2018-08-09T20:16:41.799Z,18.90
2018-08-09T20:19:09.034Z,18.80
2018-08-09T20:21:36.292Z,18.80
2018-08-09T20:24:03.615Z,18.90
2018-08-09T20:26:31.182Z,18.90
2018-08-09T20:28:58.598Z,18.90
2018-08-09T20:31:26.004Z,19.00
2018-08-09T20:33:53.427Z,18.90
2018-08-09T20:36:20.786Z,19.00
2018-08-09T20:38:48.163Z,19.00
2018-08-09T20:41:15.652Z,19.00
2018-08-09T20:43:42.991Z,19.00
2018-08-09T20:46:10.334Z,18.90
2018-08-09T20:48:37.886Z,19.00
2018-08-09T20:51:05.483Z,19.00
2018-08-09T20:53:32.707Z,19.00
2018-08-09T20:56:00.010Z,19.00
2018-08-09T20:58:27.244Z,19.10
2018-08-09T21:00:54.535Z,19.10
2018-08-09T21:03:21.758Z,19.10
2018-08-09T21:05:48.996Z,19.20
2018-08-09T21:08:16.276Z,19.20
2018-08-09T21:10:43.606Z,19.20
2018-08-09T21:13:10.943Z,19.20
2018-08-09T21:15:38.284Z,19.30
2018-08-09T21:18:05.547Z,19.30
2018-08-09T21:20:32.818Z,19.30
2018-08-09T21:23:00.047Z,19.40
2018-08-09T21:25:27.327Z,19.30
2018-08-09T21:27:54.561Z,19.50
2018-08-09T21:30:22.702Z,19.50
2018-08-09T21:32:50.439Z,19.50
2018-08-09T21:35:17.686Z,19.50
2018-08-09T21:37:45.276Z,19.30
2018-08-09T21:40:13.263Z,19.30
2018-08-09T21:42:40.494Z,19.20
2018-08-09T21:45:09.815Z,19.10
2018-08-09T21:47:37.262Z,19.00
2018-08-09T21:50:04.971Z,19.00
2018-08-09T21:52:32.228Z,18.90
2018-08-09T21:54:59.460Z,18.90
2018-08-09T21:57:26.696Z,19.00
2018-08-09T21:59:53.982Z,19.00
2018-08-09T22:02:21.358Z,19.00
2018-08-09T22:05:54.024Z,18.90
2018-08-09T22:08:26.955Z,18.80
2018-08-09T22:10:59.826Z,18.80
2018-08-09T22:13:32.818Z,18.70
2018-08-09T22:16:05.692Z,18.70
2018-08-09T22:18:38.443Z,18.60
2018-08-09T22:21:11.489Z,18.60
2018-08-09T22:23:39.148Z,18.60
2018-08-09T22:26:06.481Z,18.70
2018-08-09T22:28:33.992Z,18.70
2018-08-09T22:31:01.520Z,18.70
2018-08-09T22:33:28.942Z,18.70
2018-08-09T22:35:56.620Z,18.70
2018-08-09T22:38:23.986Z,18.70
2018-08-09T22:40:51.443Z,18.80
2018-08-09T22:43:18.949Z,18.80
2018-08-09T22:45:46.265Z,18.80
2018-08-09T22:48:13.695Z,18.80
2018-08-09T22:50:41.278Z,18.80
2018-08-09T22:53:08.612Z,18.80
2018-08-09T22:55:36.104Z,18.80
2018-08-09T22:58:03.779Z,18.80
2018-08-09T23:00:31.247Z,18.80
2018-08-09T23:02:58.688Z,18.80
2018-08-09T23:05:26.228Z,18.80
2018-08-09T23:07:53.611Z,18.70
2018-08-09T23:10:20.931Z,18.70
2018-08-09T23:12:48.419Z,18.70
2018-08-09T23:15:15.848Z,18.80
2018-08-09T23:17:43.338Z,18.80
2018-08-09T23:20:10.788Z,18.80
2018-08-09T23:22:38.158Z,18.80
2018-08-09T23:25:07.261Z,18.80
2018-08-09T23:27:34.581Z,18.90
2018-08-09T23:30:01.972Z,19.00
2018-08-09T23:32:29.336Z,18.90
2018-08-09T23:34:56.714Z,18.90
2018-08-09T23:37:24.096Z,18.90
2018-08-09T23:39:51.478Z,18.90
2018-08-09T23:42:18.864Z,19.00
2018-08-09T23:44:46.191Z,19.00
2018-08-09T23:47:13.566Z,19.00
2018-08-09T23:49:40.881Z,19.00
2018-08-09T23:52:08.472Z,19.00
2018-08-09T23:54:35.719Z,19.00
2018-08-09T23:57:02.995Z,18.90
2018-08-09T23:59:30.216Z,18.90
